createdAt,value
2023-04-29T00:00:11.313Z,97797.44
2023-04-29T00:02:58.641Z,97791.28
2023-04-29T00:05:27.511Z,97788.28
2023-04-29T00:07:54.916Z,97790.22
2023-04-29T00:10:22.446Z,97786.63
2023-04-29T00:12:51.558Z,97787.31
2023-04-29T00:15:19.321Z,97791.47
2023-04-29T00:17:47.244Z,97779.72
2023-04-29T00:20:15.198Z,97785.09
2023-04-29T00:22:42.751Z,97786.75
2023-04-29T00:25:10.877Z,97785.81
2023-04-29T00:27:39.497Z,97783.44
2023-04-29T00:30:08.724Z,97781.94
2023-04-29T00:32:36.568Z,97780.88
2023-04-29T00:35:04.329Z,97773.88
2023-04-29T00:37:31.621Z,97769.09
2023-04-29T00:39:59.214Z,97761.19
2023-04-29T00:42:27.441Z,97758.38
2023-04-29T00:44:54.989Z,97764.47
2023-04-29T00:47:22.475Z,97763.94
2023-04-29T00:49:50.402Z,97755.34
2023-04-29T00:52:19.273Z,97749.28
2023-04-29T00:54:47.012Z,97756.44
2023-04-29T00:57:15.291Z,97759.38
2023-04-29T00:59:45.813Z,97758.69
2023-04-29T01:02:13.962Z,97762.00
2023-04-29T01:04:41.657Z,97766.75
2023-04-29T01:07:24.061Z,97758.69
2023-04-29T01:10:22.750Z,97759.63
2023-04-29T01:13:18.097Z,97768.03
2023-04-29T01:16:04.276Z,97764.47
2023-04-29T01:18:44.023Z,97764.47
2023-04-29T01:21:11.564Z,97765.41
2023-04-29T01:23:38.848Z,97764.47
2023-04-29T01:26:06.897Z,97764.19
2023-04-29T01:29:27.390Z,97777.28
2023-04-29T01:32:09.206Z,97768.03
2023-04-29T01:35:00.144Z,97765.78
2023-04-29T01:38:19.664Z,97769.00
2023-04-29T01:41:23.729Z,97765.56
2023-04-29T01:43:52.933Z,97771.81
2023-04-29T01:46:20.549Z,97765.59
2023-04-29T01:48:48.115Z,97760.59
2023-04-29T01:51:15.380Z,97759.63
2023-04-29T01:53:43.371Z,97757.00
2023-04-29T01:56:10.756Z,97759.38
2023-04-29T01:58:38.371Z,97752.63
2023-04-29T02:01:07.115Z,97754.66
2023-04-29T02:03:35.192Z,97751.53
2023-04-29T02:06:02.627Z,97755.94
2023-04-29T02:08:30.173Z,97752.72
2023-04-29T02:11:00.023Z,97752.03
2023-04-29T02:13:27.643Z,97747.47
2023-04-29T02:15:54.877Z,97750.38
2023-04-29T02:18:22.445Z,97752.88
2023-04-29T02:20:51.135Z,97745.97
2023-04-29T02:23:18.794Z,97748.22
2023-04-29T02:25:46.039Z,97741.69
2023-04-29T02:28:13.701Z,97737.22
2023-04-29T02:30:40.956Z,97742.34
2023-04-29T02:33:08.880Z,97745.41
2023-04-29T02:35:36.400Z,97737.69
2023-04-29T02:38:03.925Z,97740.69
2023-04-29T02:40:31.173Z,97739.97
2023-04-29T02:42:58.785Z,97742.84
2023-04-29T02:45:26.023Z,97736.25
2023-04-29T02:47:53.778Z,97736.41
2023-04-29T02:50:21.083Z,97736.13
2023-04-29T02:52:48.619Z,97737.53
2023-04-29T02:55:15.974Z,97731.94
2023-04-29T02:57:43.585Z,97730.63
2023-04-29T03:00:11.441Z,97725.72
2023-04-29T03:02:39.370Z,97729.88
2023-04-29T03:05:07.306Z,97724.94
2023-04-29T03:07:35.264Z,97719.16
2023-04-29T03:10:02.606Z,97720.34
2023-04-29T03:12:30.196Z,97719.19
2023-04-29T03:14:57.573Z,97712.88
2023-04-29T03:17:25.116Z,97711.78
2023-04-29T03:19:54.671Z,97712.63
2023-04-29T03:22:22.346Z,97711.44
2023-04-29T03:24:49.578Z,97706.75
2023-04-29T03:27:17.875Z,97713.00
2023-04-29T03:29:45.153Z,97705.38
2023-04-29T03:32:12.800Z,97710.75
2023-04-29T03:34:40.401Z,97709.78
2023-04-29T03:37:08.767Z,97704.53
2023-04-29T03:39:36.007Z,97709.34
2023-04-29T03:42:04.642Z,97718.88
2023-04-29T03:44:31.984Z,97704.94
2023-04-29T03:46:59.608Z,97706.56
2023-04-29T03:49:26.928Z,97713.25
2023-04-29T03:51:54.689Z,97715.47
2023-04-29T03:54:22.054Z,97714.84
2023-04-29T03:56:49.619Z,97715.13
2023-04-29T03:59:16.870Z,97717.59
2023-04-29T04:01:44.385Z,97724.94
2023-04-29T04:04:11.862Z,97714.47
2023-04-29T04:06:39.513Z,97711.56
2023-04-29T04:09:06.765Z,97722.66
2023-04-29T04:11:34.232Z,97712.41
2023-04-29T04:14:01.550Z,97709.66
2023-04-29T04:16:29.181Z,97719.78
2023-04-29T04:18:56.523Z,97715.38
2023-04-29T04:21:24.148Z,97711.22
2023-04-29T04:23:51.477Z,97718.13
2023-04-29T04:26:20.626Z,97712.09
2023-04-29T04:28:47.932Z,97724.63
2023-04-29T04:31:15.445Z,97711.38
2023-04-29T04:33:42.687Z,97709.34
2023-04-29T04:36:10.303Z,97708.78
2023-04-29T04:38:37.559Z,97706.47
2023-04-29T04:41:08.274Z,97703.16
2023-04-29T04:43:35.467Z,97711.78
2023-04-29T04:46:12.029Z,97705.88
2023-04-29T04:48:39.868Z,97713.31
2023-04-29T04:51:12.664Z,97709.22
2023-04-29T04:53:41.320Z,97707.97
2023-04-29T04:56:09.137Z,97710.03
2023-04-29T04:58:36.390Z,97709.66
2023-04-29T05:01:03.957Z,97715.78
2023-04-29T05:03:31.501Z,97719.44
2023-04-29T05:06:01.667Z,97718.22
2023-04-29T05:08:29.016Z,97719.53
2023-04-29T05:10:57.804Z,97716.91
2023-04-29T05:13:28.554Z,97711.22
2023-04-29T05:16:06.978Z,97714.53
2023-04-29T05:18:35.098Z,97709.78
2023-04-29T05:21:03.308Z,97711.09
2023-04-29T05:23:30.530Z,97714.06
2023-04-29T05:25:58.066Z,97715.50
2023-04-29T05:28:27.645Z,97715.78
2023-04-29T05:30:56.167Z,97718.47
2023-04-29T05:33:23.725Z,97715.00
2023-04-29T05:35:51.349Z,97717.66
2023-04-29T05:38:18.682Z,97712.56
2023-04-29T05:40:46.504Z,97716.97
2023-04-29T05:43:13.963Z,97715.19
2023-04-29T05:45:41.474Z,97723.47
2023-04-29T05:48:08.765Z,97718.22
2023-04-29T05:50:36.483Z,97714.97
2023-04-29T05:53:04.876Z,97726.63
2023-04-29T05:55:32.537Z,97726.78
2023-04-29T05:57:59.719Z,97724.97
2023-04-29T06:00:27.306Z,97729.88
2023-04-29T06:02:58.784Z,97726.53
2023-04-29T06:05:27.773Z,97720.41
2023-04-29T06:07:55.374Z,97723.44
2023-04-29T06:10:22.962Z,97721.59
2023-04-29T06:12:51.920Z,97720.47
2023-04-29T06:15:19.449Z,97721.03
2023-04-29T06:17:47.481Z,97730.31
2023-04-29T06:20:15.005Z,97721.31
2023-04-29T06:22:42.253Z,97719.06
2023-04-29T06:25:10.085Z,97722.16
2023-04-29T06:27:37.386Z,97723.09
2023-04-29T06:30:05.917Z,97716.44
2023-04-29T06:32:33.229Z,97721.56
2023-04-29T06:35:01.362Z,97721.56
2023-04-29T06:37:28.923Z,97720.44
2023-04-29T06:39:56.599Z,97719.03
2023-04-29T06:42:23.817Z,97722.78
2023-04-29T06:44:51.375Z,97723.75
2023-04-29T06:47:18.747Z,97718.13
2023-04-29T06:49:46.311Z,97716.50
2023-04-29T06:52:13.967Z,97710.44
2023-04-29T06:54:41.523Z,97725.41
2023-04-29T06:57:08.812Z,97719.34
2023-04-29T06:59:36.582Z,97725.13
2023-04-29T07:02:03.893Z,97716.53
2023-04-29T07:04:31.527Z,97721.50
2023-04-29T07:06:59.669Z,97718.78
2023-04-29T07:09:27.886Z,97716.41
2023-04-29T07:11:55.601Z,97722.63
2023-04-29T07:14:23.197Z,97712.94
2023-04-29T07:16:56.499Z,97709.25
2023-04-29T07:19:23.957Z,97703.88
2023-04-29T07:21:51.191Z,97709.66
2023-04-29T07:24:18.805Z,97715.53
2023-04-29T07:26:46.162Z,97706.97
2023-04-29T07:29:13.803Z,97702.97
2023-04-29T07:31:41.073Z,97709.31
2023-04-29T07:34:08.777Z,97706.19
2023-04-29T07:36:36.002Z,97710.75
2023-04-29T07:39:03.779Z,97723.03
2023-04-29T07:41:31.200Z,97718.47
2023-04-29T07:43:58.733Z,97718.03
2023-04-29T07:46:26.005Z,97708.91
2023-04-29T07:48:53.688Z,97710.16
2023-04-29T07:51:21.914Z,97724.09
2023-04-29T07:53:49.506Z,97714.84
2023-04-29T07:56:16.811Z,97725.63
2023-04-29T07:58:44.428Z,97722.34
2023-04-29T08:01:12.361Z,97721.44
2023-04-29T08:03:41.832Z,97726.06
2023-04-29T08:06:09.574Z,97729.28
2023-04-29T08:08:37.608Z,97722.47
2023-04-29T08:11:05.225Z,97724.03
2023-04-29T08:13:32.944Z,97724.94
2023-04-29T08:16:00.283Z,97721.41
2023-04-29T08:18:28.087Z,97721.19
2023-04-29T08:20:55.302Z,97716.63
2023-04-29T08:23:22.842Z,97730.47
2023-04-29T08:25:52.336Z,97713.44
2023-04-29T08:28:19.881Z,97718.41
2023-04-29T08:30:47.115Z,97710.25
2023-04-29T08:33:14.991Z,97707.28
2023-04-29T08:35:42.742Z,97712.72
2023-04-29T08:38:10.813Z,97705.63
2023-04-29T08:40:49.280Z,97716.47
2023-04-29T08:43:18.123Z,97706.59
2023-04-29T08:45:48.673Z,97716.66
2023-04-29T08:48:20.249Z,97714.34
2023-04-29T08:50:47.652Z,97718.72
2023-04-29T08:53:15.943Z,97718.50
2023-04-29T08:55:46.896Z,97711.91
2023-04-29T08:58:16.480Z,97708.47
2023-04-29T09:00:45.148Z,97708.63
2023-04-29T09:03:22.171Z,97698.75
2023-04-29T09:05:53.937Z,97703.47
2023-04-29T09:08:25.275Z,97714.88
2023-04-29T09:10:55.676Z,97714.19
2023-04-29T09:13:28.097Z,97717.72
2023-04-29T09:15:56.326Z,97721.69
2023-04-29T09:18:50.875Z,97719.03
2023-04-29T09:21:32.382Z,97710.41
2023-04-29T09:24:03.415Z,97709.31
2023-04-29T09:26:44.336Z,97706.34
2023-04-29T09:29:16.146Z,97710.00
2023-04-29T09:31:43.976Z,97706.63
2023-04-29T09:34:13.161Z,97709.94
2023-04-29T09:36:50.358Z,97710.88
2023-04-29T09:39:25.184Z,97715.19
2023-04-29T09:41:55.417Z,97718.16
2023-04-29T09:44:26.100Z,97715.25
2023-04-29T09:47:06.746Z,97714.78
2023-04-29T09:49:41.180Z,97719.91
2023-04-29T09:52:12.515Z,97727.59
2023-04-29T09:54:42.529Z,97719.84
2023-04-29T09:57:13.032Z,97718.00
2023-04-29T09:59:43.629Z,97722.53
2023-04-29T10:02:16.113Z,97722.09
2023-04-29T10:04:47.702Z,97716.84
2023-04-29T10:07:18.731Z,97715.72
2023-04-29T10:09:47.994Z,97728.34
2023-04-29T10:12:20.692Z,97725.59
2023-04-29T10:15:04.228Z,97733.25
2023-04-29T10:17:47.357Z,97719.16
2023-04-29T10:20:22.800Z,97721.31
2023-04-29T10:22:52.863Z,97722.31
2023-04-29T10:25:22.780Z,97723.28
2023-04-29T10:27:53.621Z,97717.97
2023-04-29T10:30:23.006Z,97720.75
2023-04-29T10:32:52.776Z,97717.44
2023-04-29T10:35:25.763Z,97715.69
2023-04-29T10:37:56.212Z,97714.72
2023-04-29T10:40:36.979Z,97714.84
2023-04-29T10:43:04.847Z,97726.75
2023-04-29T10:45:37.727Z,97711.47
2023-04-29T10:48:10.917Z,97721.91
2023-04-29T10:50:47.572Z,97714.00
2023-04-29T10:53:19.588Z,97719.09
2023-04-29T10:55:59.636Z,97715.81
2023-04-29T10:58:46.245Z,97716.28
2023-04-29T11:01:16.753Z,97709.66
2023-04-29T11:03:58.584Z,97724.94
2023-04-29T11:06:41.549Z,97720.47
2023-04-29T11:09:21.467Z,97712.00
2023-04-29T11:12:06.092Z,97712.31
2023-04-29T11:14:41.599Z,97705.44
2023-04-29T11:17:15.512Z,97702.97
2023-04-29T11:19:52.741Z,97709.75
2023-04-29T11:22:23.154Z,97709.97
2023-04-29T11:25:01.874Z,97715.88
2023-04-29T11:27:38.916Z,97716.13
2023-04-29T11:30:08.541Z,97718.34
2023-04-29T11:32:41.628Z,97724.38
2023-04-29T11:35:15.499Z,97709.94
2023-04-29T11:37:45.755Z,97716.88
2023-04-29T11:40:15.361Z,97715.41
2023-04-29T11:42:49.382Z,97721.19
2023-04-29T11:45:20.493Z,97727.59
2023-04-29T11:47:49.563Z,97726.38
2023-04-29T11:50:19.981Z,97729.91
2023-04-29T11:52:49.518Z,97726.28
2023-04-29T11:55:17.252Z,97728.50
2023-04-29T11:57:44.617Z,97742.59
2023-04-29T12:00:14.277Z,97728.72
2023-04-29T12:02:47.053Z,97732.97
2023-04-29T12:05:17.462Z,97728.97
2023-04-29T12:07:45.567Z,97730.50
2023-04-29T12:10:13.352Z,97726.34
2023-04-29T12:12:43.788Z,97730.53
2023-04-29T12:15:13.539Z,97712.22
2023-04-29T12:17:42.892Z,97729.63
2023-04-29T12:20:12.301Z,97720.56
2023-04-29T12:22:41.732Z,97717.78
2023-04-29T12:25:10.052Z,97706.13
2023-04-29T12:27:44.417Z,97721.03
2023-04-29T12:30:12.965Z,97695.69
2023-04-29T12:32:41.061Z,97711.72
2023-04-29T12:35:17.284Z,97698.47
2023-04-29T12:37:49.834Z,97688.56
2023-04-29T12:40:20.630Z,97700.22
2023-04-29T12:42:48.284Z,97707.50
2023-04-29T12:45:34.226Z,97683.78
2023-04-29T12:48:03.316Z,97683.72
2023-04-29T12:50:38.950Z,97682.56
2023-04-29T12:53:08.943Z,97667.44
2023-04-29T12:55:38.680Z,97669.91
2023-04-29T12:58:06.395Z,97691.19
2023-04-29T13:00:35.260Z,97675.22
2023-04-29T13:03:03.140Z,97687.78
2023-04-29T13:05:31.109Z,97677.97
2023-04-29T13:07:58.551Z,97673.06
2023-04-29T13:10:26.416Z,97687.88
2023-04-29T13:12:53.757Z,97670.72
2023-04-29T13:15:21.676Z,97676.88
2023-04-29T13:17:49.118Z,97684.19
2023-04-29T13:20:16.718Z,97665.44
2023-04-29T13:22:44.631Z,97673.00
2023-04-29T13:25:12.658Z,97670.25
2023-04-29T13:27:39.981Z,97669.78
2023-04-29T13:30:09.342Z,97676.91
2023-04-29T13:35:09.054Z,97664.06
2023-04-29T13:37:36.372Z,97667.69
2023-04-29T13:40:07.230Z,97673.53
2023-04-29T13:42:39.581Z,97668.16
2023-04-29T13:45:16.261Z,97658.75
2023-04-29T13:48:03.149Z,97655.72
2023-04-29T13:53:33.055Z,97654.47
2023-04-29T13:56:41.167Z,97665.06
2023-04-29T13:59:19.609Z,97665.16
2023-04-29T14:02:08.690Z,97657.94
2023-04-29T14:04:12.552Z,97659.56
2023-04-29T14:06:40.403Z,97666.03
2023-04-29T14:09:07.878Z,97655.59
2023-04-29T14:11:36.887Z,97656.94
2023-04-29T14:14:04.843Z,97653.88
2023-04-29T14:16:33.097Z,97658.53
2023-04-29T14:19:02.863Z,97662.63
2023-04-29T14:21:33.385Z,97660.00
2023-04-29T14:24:04.881Z,97661.78
2023-04-29T14:26:32.574Z,97664.97
2023-04-29T14:29:00.661Z,97673.22
2023-04-29T14:31:40.643Z,97669.16
2023-04-29T14:34:07.913Z,97647.72
2023-04-29T14:36:35.551Z,97663.16
2023-04-29T14:39:04.398Z,97657.72
2023-04-29T14:41:32.004Z,97657.31
2023-04-29T14:43:59.404Z,97655.72
2023-04-29T14:46:29.107Z,97667.88
2023-04-29T14:48:56.576Z,97657.88
2023-04-29T14:51:24.132Z,97667.91
2023-04-29T14:53:51.887Z,97659.53
2023-04-29T14:56:19.409Z,97669.88
2023-04-29T14:58:46.717Z,97662.00
2023-04-29T15:01:14.335Z,97657.72
2023-04-29T15:03:44.106Z,97660.03
2023-04-29T15:06:13.546Z,97649.78
2023-04-29T15:08:40.843Z,97657.25
2023-04-29T15:11:08.356Z,97652.78
2023-04-29T15:13:35.592Z,97660.59
2023-04-29T15:16:04.233Z,97658.31
2023-04-29T15:18:31.689Z,97661.59
2023-04-29T15:20:59.484Z,97653.19
2023-04-29T15:23:26.972Z,97656.31
2023-04-29T15:25:54.989Z,97661.28
2023-04-29T15:28:24.581Z,97662.78
2023-04-29T15:30:52.498Z,97672.81
2023-04-29T15:33:19.758Z,97666.41
2023-04-29T15:35:47.376Z,97674.97
2023-04-29T15:38:14.634Z,97677.88
2023-04-29T15:40:42.137Z,97677.88
2023-04-29T15:43:09.512Z,97675.09
2023-04-29T15:45:37.311Z,97673.44
2023-04-29T15:48:05.312Z,97671.44
2023-04-29T15:50:32.868Z,97672.63
2023-04-29T15:53:00.698Z,97669.59
2023-04-29T15:55:28.573Z,97672.06
2023-04-29T15:57:55.971Z,97674.03
2023-04-29T16:00:23.476Z,97666.22
2023-04-29T16:02:50.834Z,97680.53
2023-04-29T16:05:18.407Z,97673.44
2023-04-29T16:07:45.924Z,97674.44
2023-04-29T16:10:13.522Z,97679.22
2023-04-29T16:12:40.831Z,97676.31
2023-04-29T16:15:09.658Z,97678.63
2023-04-29T16:17:36.981Z,97687.97
2023-04-29T16:20:05.506Z,97686.69
2023-04-29T16:22:33.034Z,97684.91
2023-04-29T16:25:00.554Z,97686.97
2023-04-29T16:27:30.064Z,97687.16
2023-04-29T16:29:57.754Z,97688.50
2023-04-29T16:32:27.217Z,97698.22
2023-04-29T16:34:54.938Z,97677.94
2023-04-29T16:37:23.058Z,97683.75
2023-04-29T16:39:50.777Z,97688.28
2023-04-29T16:42:19.571Z,97695.72
2023-04-29T16:44:47.027Z,97688.06
2023-04-29T16:47:14.714Z,97698.28
2023-04-29T16:49:42.603Z,97706.25
2023-04-29T16:52:10.082Z,97703.19
2023-04-29T16:54:37.630Z,97706.88
2023-04-29T16:57:05.025Z,97706.78
2023-04-29T16:59:32.746Z,97704.63
2023-04-29T17:02:03.021Z,97704.38
2023-04-29T17:04:33.579Z,97712.28
2023-04-29T17:07:01.627Z,97711.25
2023-04-29T17:09:29.400Z,97717.03
2023-04-29T17:11:57.524Z,97715.69
2023-04-29T17:14:25.053Z,97710.38
2023-04-29T17:16:52.488Z,97713.06
2023-04-29T17:19:20.030Z,97715.28
2023-04-29T17:21:47.432Z,97716.06
2023-04-29T17:24:15.105Z,97715.34
2023-04-29T17:26:42.466Z,97718.56
2023-04-29T17:29:10.854Z,97717.56
2023-04-29T17:31:54.134Z,97720.34
2023-04-29T17:34:25.612Z,97720.13
2023-04-29T17:36:54.041Z,97726.69
2023-04-29T17:39:21.597Z,97726.94
2023-04-29T17:41:48.876Z,97732.38
2023-04-29T17:44:16.563Z,97735.88
2023-04-29T17:46:44.118Z,97734.19
2023-04-29T17:49:11.875Z,97730.81
2023-04-29T17:51:39.246Z,97735.97
2023-04-29T17:54:08.462Z,97738.16
2023-04-29T17:56:36.623Z,97736.25
2023-04-29T17:59:06.133Z,97737.03
2023-04-29T18:01:35.150Z,97741.03
2023-04-29T18:04:02.969Z,97749.22
2023-04-29T18:06:30.528Z,97752.81
2023-04-29T18:08:58.212Z,97752.16
2023-04-29T18:11:25.463Z,97750.06
2023-04-29T18:13:54.555Z,97748.97
2023-04-29T18:16:21.900Z,97750.13
2023-04-29T18:18:55.196Z,97750.66
2023-04-29T18:21:26.348Z,97751.66
2023-04-29T18:23:57.784Z,97759.09
2023-04-29T18:26:25.295Z,97763.66
2023-04-29T18:28:52.954Z,97765.34
2023-04-29T18:31:20.439Z,97774.47
2023-04-29T18:33:48.282Z,97770.72
2023-04-29T18:36:15.674Z,97776.13
2023-04-29T18:38:43.645Z,97777.25
2023-04-29T18:41:12.168Z,97784.16
2023-04-29T18:43:39.877Z,97780.56
2023-04-29T18:46:07.405Z,97784.72
2023-04-29T18:48:36.633Z,97786.13
2023-04-29T18:51:05.632Z,97788.75
2023-04-29T18:53:33.485Z,97792.19
2023-04-29T18:56:00.944Z,97791.38
2023-04-29T18:58:28.634Z,97790.41
2023-04-29T19:00:57.942Z,97792.47
2023-04-29T19:03:26.559Z,97801.31
2023-04-29T19:05:53.933Z,97793.44
2023-04-29T19:08:21.599Z,97804.66
2023-04-29T19:10:48.946Z,97793.19
2023-04-29T19:13:16.742Z,97790.94
2023-04-29T19:15:44.157Z,97794.81
2023-04-29T19:18:11.700Z,97803.09
2023-04-29T19:20:40.980Z,97804.09
2023-04-29T19:23:08.661Z,97802.13
2023-04-29T19:25:35.924Z,97804.22
2023-04-29T19:28:03.716Z,97809.78
2023-04-29T19:30:31.160Z,97810.16
2023-04-29T19:32:58.930Z,97807.97
2023-04-29T19:35:26.365Z,97809.63
2023-04-29T19:37:54.920Z,97816.81
2023-04-29T19:40:22.175Z,97811.63
2023-04-29T19:42:49.787Z,97816.00
2023-04-29T19:45:17.082Z,97814.97
2023-04-29T19:47:44.711Z,97822.50
2023-04-29T19:50:12.035Z,97821.72
2023-04-29T19:52:39.739Z,97833.94
2023-04-29T19:55:09.060Z,97828.81
2023-04-29T19:57:37.126Z,97829.38
2023-04-29T20:00:06.108Z,97826.06
2023-04-29T20:02:33.981Z,97834.13
2023-04-29T20:05:01.518Z,97838.31
2023-04-29T20:07:29.099Z,97836.09
2023-04-29T20:09:56.802Z,97838.75
2023-04-29T20:12:24.652Z,97840.66
2023-04-29T20:14:52.045Z,97839.19
2023-04-29T20:17:19.624Z,97837.69
2023-04-29T20:19:46.941Z,97840.22
2023-04-29T20:22:14.580Z,97850.25
2023-04-29T20:24:42.162Z,97841.28
2023-04-29T20:27:09.787Z,97845.69
2023-04-29T20:29:38.018Z,97839.97
2023-04-29T20:32:06.090Z,97836.97
2023-04-29T20:34:33.668Z,97841.00
2023-04-29T20:37:01.539Z,97838.53
2023-04-29T20:39:29.041Z,97837.69
2023-04-29T20:41:57.116Z,97834.94
2023-04-29T20:44:24.624Z,97842.81
2023-04-29T20:46:53.159Z,97834.66
2023-04-29T20:49:20.623Z,97841.28
2023-04-29T20:51:49.444Z,97841.22
2023-04-29T20:54:16.979Z,97842.50
2023-04-29T20:56:44.549Z,97843.53
2023-04-29T20:59:11.934Z,97842.91
2023-04-29T21:01:46.447Z,97845.81
2023-04-29T21:04:14.411Z,97855.16
2023-04-29T21:06:42.152Z,97841.38
2023-04-29T21:09:09.642Z,97843.53
2023-04-29T21:11:37.360Z,97847.88
2023-04-29T21:14:04.638Z,97849.75
2023-04-29T21:16:32.177Z,97853.41
2023-04-29T21:18:59.399Z,97856.13
2023-04-29T21:21:27.394Z,97849.44
2023-04-29T21:23:54.600Z,97849.50
2023-04-29T21:26:22.236Z,97848.16
2023-04-29T21:28:49.906Z,97852.00
2023-04-29T21:31:17.759Z,97857.69
2023-04-29T21:33:46.279Z,97859.16
2023-04-29T21:36:13.927Z,97859.53
2023-04-29T21:38:42.931Z,97863.03
2023-04-29T21:41:37.404Z,97862.88
2023-04-29T21:44:06.629Z,97868.69
2023-04-29T21:46:36.293Z,97871.88
2023-04-29T21:49:04.180Z,97865.66
2023-04-29T21:51:32.243Z,97876.16
2023-04-29T21:53:59.924Z,97874.31
2023-04-29T21:56:27.442Z,97869.34
2023-04-29T21:58:55.209Z,97877.34
2023-04-29T22:01:41.490Z,97879.00
2023-04-29T22:04:09.029Z,97878.16
2023-04-29T22:06:36.999Z,97871.22
2023-04-29T22:09:05.095Z,97884.25
2023-04-29T22:11:33.259Z,97881.91
2023-04-29T22:14:00.783Z,97880.94
2023-04-29T22:16:28.391Z,97881.50
2023-04-29T22:18:57.656Z,97882.16
2023-04-29T22:21:25.205Z,97885.22
2023-04-29T22:23:52.463Z,97889.66
2023-04-29T22:26:20.119Z,97889.06
2023-04-29T22:28:47.351Z,97888.06
2023-04-29T22:31:14.921Z,97887.44
2023-04-29T22:33:42.132Z,97897.44
2023-04-29T22:36:09.816Z,97889.75
2023-04-29T22:38:37.987Z,97887.13
2023-04-29T22:41:05.995Z,97891.38
2023-04-29T22:43:33.182Z,97900.59
2023-04-29T22:46:01.211Z,97894.56
2023-04-29T22:48:28.750Z,97897.03
2023-04-29T22:50:59.629Z,97900.72
2023-04-29T22:53:27.394Z,97902.84
2023-04-29T22:55:57.900Z,97904.56
2023-04-29T22:58:26.370Z,97907.38
2023-04-29T23:00:57.067Z,97915.47
2023-04-29T23:03:25.399Z,97916.31
2023-04-29T23:05:59.707Z,97917.56
2023-04-29T23:08:27.709Z,97918.19
2023-04-29T23:10:55.613Z,97918.84
2023-04-29T23:13:23.120Z,97918.19
2023-04-29T23:15:50.815Z,97917.34
2023-04-29T23:18:18.142Z,97911.06
2023-04-29T23:20:49.276Z,97912.94
2023-04-29T23:23:16.527Z,97920.41
2023-04-29T23:25:45.377Z,97918.56
2023-04-29T23:28:12.758Z,97913.38
2023-04-29T23:30:40.404Z,97914.56
2023-04-29T23:33:07.770Z,97916.91
2023-04-29T23:35:35.600Z,97924.56
2023-04-29T23:38:02.875Z,97922.41
2023-04-29T23:40:31.809Z,97912.63
2023-04-29T23:42:59.189Z,97921.97
2023-04-29T23:45:26.704Z,97921.06
2023-04-29T23:47:54.050Z,97910.75
2023-04-29T23:50:21.570Z,97915.69
2023-04-29T23:52:48.912Z,97914.44
2023-04-29T23:55:16.509Z,97910.72
2023-04-29T23:57:43.818Z,97921.50
